sensor_id;sensor_type;location;lat;lon;timestamp;P1;durP1;ratioP1;P2;durP2;ratioP2
67737;SDS011;54534;43.612;1.572;2023-04-25T00:00:56;2.30;;;1.10;;
67737;SDS011;54534;43.612;1.572;2023-04-25T00:03:21;1.63;;;0.90;;
67737;SDS011;54534;43.612;1.572;2023-04-25T00:05:47;1.70;;;1.00;;
67737;SDS011;54534;43.612;1.572;2023-04-25T00:08:12;2.90;;;1.10;;
67737;SDS011;54534;43.612;1.572;2023-04-25T00:10:38;1.30;;;1.07;;
67737;SDS011;54534;43.612;1.572;2023-04-25T00:13:03;1.27;;;1.10;;
67737;SDS011;54534;43.612;1.572;2023-04-25T00:15:29;1.73;;;1.03;;
67737;SDS011;54534;43.612;1.572;2023-04-25T00:17:57;1.77;;;1.33;;
67737;SDS011;54534;43.612;1.572;2023-04-25T00:20:23;3.87;;;1.63;;
67737;SDS011;54534;43.612;1.572;2023-04-25T00:22:49;1.33;;;0.90;;
67737;SDS011;54534;43.612;1.572;2023-04-25T00:25:15;1.07;;;0.90;;
67737;SDS011;54534;43.612;1.572;2023-04-25T00:27:41;2.53;;;1.13;;
67737;SDS011;54534;43.612;1.572;2023-04-25T00:30:07;2.67;;;1.00;;
67737;SDS011;54534;43.612;1.572;2023-04-25T00:32:32;1.87;;;1.10;;
67737;SDS011;54534;43.612;1.572;2023-04-25T00:34:58;1.00;;;0.83;;
67737;SDS011;54534;43.612;1.572;2023-04-25T00:37:24;1.53;;;1.00;;
67737;SDS011;54534;43.612;1.572;2023-04-25T00:39:50;1.93;;;1.10;;
67737;SDS011;54534;43.612;1.572;2023-04-25T00:42:16;0.80;;;0.80;;
67737;SDS011;54534;43.612;1.572;2023-04-25T00:44:41;1.10;;;1.00;;
67737;SDS011;54534;43.612;1.572;2023-04-25T00:47:08;2.40;;;0.80;;
67737;SDS011;54534;43.612;1.572;2023-04-25T00:49:33;3.67;;;1.20;;
67737;SDS011;54534;43.612;1.572;2023-04-25T00:51:59;2.53;;;1.27;;
67737;SDS011;54534;43.612;1.572;2023-04-25T00:54:25;2.37;;;1.10;;
67737;SDS011;54534;43.612;1.572;2023-04-25T00:56:50;1.10;;;1.00;;
67737;SDS011;54534;43.612;1.572;2023-04-25T00:59:18;1.13;;;1.03;;
67737;SDS011;54534;43.612;1.572;2023-04-25T01:01:45;2.93;;;1.10;;
67737;SDS011;54534;43.612;1.572;2023-04-25T01:04:10;2.50;;;1.20;;
67737;SDS011;54534;43.612;1.572;2023-04-25T01:06:36;1.50;;;1.13;;
67737;SDS011;54534;43.612;1.572;2023-04-25T01:09:01;2.03;;;1.10;;
67737;SDS011;54534;43.612;1.572;2023-04-25T01:11:27;1.30;;;1.20;;
67737;SDS011;54534;43.612;1.572;2023-04-25T01:13:53;1.13;;;1.03;;
67737;SDS011;54534;43.612;1.572;2023-04-25T01:16:18;3.00;;;1.17;;
67737;SDS011;54534;43.612;1.572;2023-04-25T01:18:45;0.97;;;0.73;;
67737;SDS011;54534;43.612;1.572;2023-04-25T01:21:12;1.27;;;0.83;;
67737;SDS011;54534;43.612;1.572;2023-04-25T01:23:40;1.30;;;1.10;;
67737;SDS011;54534;43.612;1.572;2023-04-25T01:26:08;0.90;;;0.73;;
67737;SDS011;54534;43.612;1.572;2023-04-25T01:28:35;1.63;;;1.13;;
67737;SDS011;54534;43.612;1.572;2023-04-25T01:31:01;1.23;;;1.07;;
67737;SDS011;54534;43.612;1.572;2023-04-25T01:33:26;3.23;;;1.00;;
67737;SDS011;54534;43.612;1.572;2023-04-25T01:35:52;0.70;;;0.70;;
67737;SDS011;54534;43.612;1.572;2023-04-25T01:38:18;0.87;;;0.80;;
67737;SDS011;54534;43.612;1.572;2023-04-25T01:40:44;1.23;;;1.10;;
67737;SDS011;54534;43.612;1.572;2023-04-25T01:43:11;0.97;;;0.80;;
67737;SDS011;54534;43.612;1.572;2023-04-25T01:45:39;1.00;;;0.90;;
67737;SDS011;54534;43.612;1.572;2023-04-25T01:48:06;0.97;;;0.87;;
67737;SDS011;54534;43.612;1.572;2023-04-25T01:50:32;1.07;;;0.97;;
67737;SDS011;54534;43.612;1.572;2023-04-25T01:52:58;1.40;;;0.87;;
67737;SDS011;54534;43.612;1.572;2023-04-25T01:55:23;0.87;;;0.80;;
67737;SDS011;54534;43.612;1.572;2023-04-25T01:57:49;0.80;;;0.60;;
67737;SDS011;54534;43.612;1.572;2023-04-25T02:00:14;1.30;;;1.07;;
67737;SDS011;54534;43.612;1.572;2023-04-25T02:02:40;0.83;;;0.70;;
67737;SDS011;54534;43.612;1.572;2023-04-25T02:05:05;1.00;;;1.00;;
67737;SDS011;54534;43.612;1.572;2023-04-25T02:07:31;1.20;;;0.80;;
67737;SDS011;54534;43.612;1.572;2023-04-25T02:09:57;0.87;;;0.70;;
67737;SDS011;54534;43.612;1.572;2023-04-25T02:12:22;1.00;;;0.80;;
67737;SDS011;54534;43.612;1.572;2023-04-25T02:14:48;1.50;;;0.93;;
67737;SDS011;54534;43.612;1.572;2023-04-25T02:17:13;1.47;;;0.90;;
67737;SDS011;54534;43.612;1.572;2023-04-25T02:19:39;1.13;;;0.70;;
67737;SDS011;54534;43.612;1.572;2023-04-25T02:22:04;1.03;;;0.80;;
67737;SDS011;54534;43.612;1.572;2023-04-25T02:24:30;0.80;;;0.80;;
67737;SDS011;54534;43.612;1.572;2023-04-25T02:26:56;0.80;;;0.70;;
67737;SDS011;54534;43.612;1.572;2023-04-25T02:29:22;0.70;;;0.60;;
67737;SDS011;54534;43.612;1.572;2023-04-25T02:31:47;0.70;;;0.70;;
67737;SDS011;54534;43.612;1.572;2023-04-25T02:34:13;0.83;;;0.77;;
67737;SDS011;54534;43.612;1.572;2023-04-25T02:36:38;1.20;;;0.80;;
67737;SDS011;54534;43.612;1.572;2023-04-25T02:39:04;2.10;;;0.70;;
67737;SDS011;54534;43.612;1.572;2023-04-25T02:41:29;0.57;;;0.57;;
67737;SDS011;54534;43.612;1.572;2023-04-25T02:43:55;1.20;;;0.80;;
67737;SDS011;54534;43.612;1.572;2023-04-25T02:46:20;2.30;;;0.70;;
67737;SDS011;54534;43.612;1.572;2023-04-25T02:48:46;0.77;;;0.77;;
67737;SDS011;54534;43.612;1.572;2023-04-25T02:51:11;1.13;;;0.80;;
67737;SDS011;54534;43.612;1.572;2023-04-25T02:53:37;1.10;;;0.70;;
67737;SDS011;54534;43.612;1.572;2023-04-25T02:56:02;0.50;;;0.50;;
67737;SDS011;54534;43.612;1.572;2023-04-25T02:58:28;1.17;;;0.90;;
67737;SDS011;54534;43.612;1.572;2023-04-25T03:00:53;0.83;;;0.70;;
67737;SDS011;54534;43.612;1.572;2023-04-25T03:03:19;1.47;;;0.73;;
67737;SDS011;54534;43.612;1.572;2023-04-25T03:05:47;1.23;;;0.60;;
67737;SDS011;54534;43.612;1.572;2023-04-25T03:08:13;0.63;;;0.63;;
67737;SDS011;54534;43.612;1.572;2023-04-25T03:10:39;0.60;;;0.60;;
67737;SDS011;54534;43.612;1.572;2023-04-25T03:13:04;0.57;;;0.57;;
67737;SDS011;54534;43.612;1.572;2023-04-25T03:15:30;0.70;;;0.60;;
67737;SDS011;54534;43.612;1.572;2023-04-25T03:17:56;0.57;;;0.57;;
67737;SDS011;54534;43.612;1.572;2023-04-25T03:20:21;0.60;;;0.60;;
67737;SDS011;54534;43.612;1.572;2023-04-25T03:22:47;0.60;;;0.60;;
67737;SDS011;54534;43.612;1.572;2023-04-25T03:25:12;0.93;;;0.70;;
67737;SDS011;54534;43.612;1.572;2023-04-25T03:27:38;0.50;;;0.50;;
67737;SDS011;54534;43.612;1.572;2023-04-25T03:30:03;0.60;;;0.60;;
67737;SDS011;54534;43.612;1.572;2023-04-25T03:32:29;0.60;;;0.60;;
67737;SDS011;54534;43.612;1.572;2023-04-25T03:34:54;0.80;;;0.60;;
67737;SDS011;54534;43.612;1.572;2023-04-25T03:37:20;0.60;;;0.60;;
67737;SDS011;54534;43.612;1.572;2023-04-25T03:39:46;1.00;;;0.70;;
67737;SDS011;54534;43.612;1.572;2023-04-25T03:42:11;0.70;;;0.70;;
67737;SDS011;54534;43.612;1.572;2023-04-25T03:44:36;3.03;;;1.10;;
67737;SDS011;54534;43.612;1.572;2023-04-25T03:47:02;0.40;;;0.40;;
67737;SDS011;54534;43.612;1.572;2023-04-25T03:49:27;1.40;;;0.67;;
67737;SDS011;54534;43.612;1.572;2023-04-25T03:51:53;0.60;;;0.60;;
67737;SDS011;54534;43.612;1.572;2023-04-25T03:54:18;0.50;;;0.50;;
67737;SDS011;54534;43.612;1.572;2023-04-25T03:56:43;0.83;;;0.73;;
67737;SDS011;54534;43.612;1.572;2023-04-25T03:59:09;0.43;;;0.43;;
67737;SDS011;54534;43.612;1.572;2023-04-25T04:01:34;0.73;;;0.50;;
67737;SDS011;54534;43.612;1.572;2023-04-25T04:04:00;0.53;;;0.53;;
67737;SDS011;54534;43.612;1.572;2023-04-25T04:06:25;0.60;;;0.57;;
67737;SDS011;54534;43.612;1.572;2023-04-25T04:08:51;0.43;;;0.43;;
67737;SDS011;54534;43.612;1.572;2023-04-25T04:11:17;0.50;;;0.50;;
67737;SDS011;54534;43.612;1.572;2023-04-25T04:13:42;0.60;;;0.60;;
67737;SDS011;54534;43.612;1.572;2023-04-25T04:16:07;1.20;;;0.50;;
67737;SDS011;54534;43.612;1.572;2023-04-25T04:18:33;0.67;;;0.50;;
67737;SDS011;54534;43.612;1.572;2023-04-25T04:20:59;0.60;;;0.60;;
67737;SDS011;54534;43.612;1.572;2023-04-25T04:23:24;0.83;;;0.83;;
67737;SDS011;54534;43.612;1.572;2023-04-25T04:25:52;0.63;;;0.60;;
67737;SDS011;54534;43.612;1.572;2023-04-25T04:28:18;3.03;;;0.87;;
67737;SDS011;54534;43.612;1.572;2023-04-25T04:30:43;0.67;;;0.67;;
67737;SDS011;54534;43.612;1.572;2023-04-25T04:33:11;0.40;;;0.40;;
67737;SDS011;54534;43.612;1.572;2023-04-25T04:35:37;0.50;;;0.50;;
67737;SDS011;54534;43.612;1.572;2023-04-25T04:38:02;1.33;;;0.50;;
67737;SDS011;54534;43.612;1.572;2023-04-25T04:40:28;0.63;;;0.63;;
67737;SDS011;54534;43.612;1.572;2023-04-25T04:42:56;0.53;;;0.53;;
67737;SDS011;54534;43.612;1.572;2023-04-25T04:45:22;0.50;;;0.50;;
67737;SDS011;54534;43.612;1.572;2023-04-25T04:47:48;0.47;;;0.47;;
67737;SDS011;54534;43.612;1.572;2023-04-25T04:50:14;0.37;;;0.37;;
67737;SDS011;54534;43.612;1.572;2023-04-25T04:52:40;1.03;;;0.40;;
67737;SDS011;54534;43.612;1.572;2023-04-25T04:55:05;0.50;;;0.50;;
67737;SDS011;54534;43.612;1.572;2023-04-25T04:57:32;0.40;;;0.40;;
67737;SDS011;54534;43.612;1.572;2023-04-25T04:59:58;0.70;;;0.50;;
67737;SDS011;54534;43.612;1.572;2023-04-25T05:02:24;0.50;;;0.50;;
67737;SDS011;54534;43.612;1.572;2023-04-25T05:04:50;0.50;;;0.50;;
67737;SDS011;54534;43.612;1.572;2023-04-25T05:07:16;0.70;;;0.70;;
67737;SDS011;54534;43.612;1.572;2023-04-25T05:09:42;2.93;;;0.50;;
67737;SDS011;54534;43.612;1.572;2023-04-25T05:12:07;14.30;;;0.70;;
67737;SDS011;54534;43.612;1.572;2023-04-25T05:14:33;5.00;;;1.00;;
67737;SDS011;54534;43.612;1.572;2023-04-25T05:16:58;4.27;;;0.60;;
67737;SDS011;54534;43.612;1.572;2023-04-25T05:19:24;5.10;;;1.23;;
67737;SDS011;54534;43.612;1.572;2023-04-25T05:21:49;7.23;;;0.70;;
67737;SDS011;54534;43.612;1.572;2023-04-25T05:24:15;5.53;;;0.60;;
67737;SDS011;54534;43.612;1.572;2023-04-25T05:26:41;1.90;;;0.50;;
67737;SDS011;54534;43.612;1.572;2023-04-25T05:29:06;2.47;;;0.63;;
67737;SDS011;54534;43.612;1.572;2023-04-25T05:31:32;6.23;;;1.33;;
67737;SDS011;54534;43.612;1.572;2023-04-25T05:33:57;0.63;;;0.50;;
67737;SDS011;54534;43.612;1.572;2023-04-25T05:36:23;0.40;;;0.40;;
67737;SDS011;54534;43.612;1.572;2023-04-25T05:38:48;2.53;;;0.73;;
67737;SDS011;54534;43.612;1.572;2023-04-25T05:41:14;0.77;;;0.40;;
67737;SDS011;54534;43.612;1.572;2023-04-25T05:43:39;2.40;;;0.63;;
67737;SDS011;54534;43.612;1.572;2023-04-25T05:46:10;0.50;;;0.50;;
67737;SDS011;54534;43.612;1.572;2023-04-25T05:48:35;3.43;;;0.50;;
67737;SDS011;54534;43.612;1.572;2023-04-25T05:51:01;3.63;;;0.90;;
67737;SDS011;54534;43.612;1.572;2023-04-25T05:53:26;5.17;;;0.70;;
67737;SDS011;54534;43.612;1.572;2023-04-25T05:55:51;4.53;;;1.27;;
67737;SDS011;54534;43.612;1.572;2023-04-25T05:58:17;4.10;;;0.80;;
67737;SDS011;54534;43.612;1.572;2023-04-25T06:00:42;17.63;;;0.97;;
67737;SDS011;54534;43.612;1.572;2023-04-25T06:03:08;17.40;;;1.10;;
67737;SDS011;54534;43.612;1.572;2023-04-25T06:05:34;5.73;;;1.03;;
67737;SDS011;54534;43.612;1.572;2023-04-25T06:08:00;6.40;;;0.80;;
67737;SDS011;54534;43.612;1.572;2023-04-25T06:10:26;6.47;;;1.30;;
67737;SDS011;54534;43.612;1.572;2023-04-25T06:12:51;7.33;;;1.83;;
67737;SDS011;54534;43.612;1.572;2023-04-25T06:15:16;8.93;;;0.83;;
67737;SDS011;54534;43.612;1.572;2023-04-25T06:17:42;8.83;;;1.30;;
67737;SDS011;54534;43.612;1.572;2023-04-25T06:20:08;5.53;;;0.80;;
67737;SDS011;54534;43.612;1.572;2023-04-25T06:22:33;2.43;;;0.83;;
67737;SDS011;54534;43.612;1.572;2023-04-25T06:24:59;5.10;;;1.00;;
67737;SDS011;54534;43.612;1.572;2023-04-25T06:27:25;8.17;;;1.50;;
67737;SDS011;54534;43.612;1.572;2023-04-25T06:29:50;1.67;;;0.80;;
67737;SDS011;54534;43.612;1.572;2023-04-25T06:32:16;2.63;;;0.60;;
67737;SDS011;54534;43.612;1.572;2023-04-25T06:34:43;5.40;;;0.70;;
67737;SDS011;54534;43.612;1.572;2023-04-25T06:37:08;0.50;;;0.50;;
67737;SDS011;54534;43.612;1.572;2023-04-25T06:39:34;4.30;;;0.77;;
67737;SDS011;54534;43.612;1.572;2023-04-25T06:42:00;4.37;;;0.80;;
67737;SDS011;54534;43.612;1.572;2023-04-25T06:44:25;6.17;;;0.80;;
67737;SDS011;54534;43.612;1.572;2023-04-25T06:46:51;10.13;;;0.80;;
67737;SDS011;54534;43.612;1.572;2023-04-25T06:49:16;3.90;;;1.07;;
67737;SDS011;54534;43.612;1.572;2023-04-25T06:51:42;8.73;;;0.93;;
67737;SDS011;54534;43.612;1.572;2023-04-25T06:54:07;5.47;;;0.70;;
67737;SDS011;54534;43.612;1.572;2023-04-25T06:56:33;2.57;;;0.83;;
67737;SDS011;54534;43.612;1.572;2023-04-25T06:58:58;1.50;;;0.57;;
67737;SDS011;54534;43.612;1.572;2023-04-25T07:01:25;0.83;;;0.50;;
67737;SDS011;54534;43.612;1.572;2023-04-25T07:03:51;0.73;;;0.40;;
67737;SDS011;54534;43.612;1.572;2023-04-25T07:06:16;3.70;;;0.50;;
67737;SDS011;54534;43.612;1.572;2023-04-25T07:08:41;4.27;;;0.60;;
67737;SDS011;54534;43.612;1.572;2023-04-25T07:11:07;3.80;;;0.40;;
67737;SDS011;54534;43.612;1.572;2023-04-25T07:13:32;0.47;;;0.40;;
67737;SDS011;54534;43.612;1.572;2023-04-25T07:15:58;0.77;;;0.50;;
67737;SDS011;54534;43.612;1.572;2023-04-25T07:18:24;2.57;;;0.53;;
67737;SDS011;54534;43.612;1.572;2023-04-25T07:20:50;0.50;;;0.50;;
67737;SDS011;54534;43.612;1.572;2023-04-25T07:23:15;7.33;;;1.07;;
67737;SDS011;54534;43.612;1.572;2023-04-25T07:25:40;2.17;;;0.67;;
67737;SDS011;54534;43.612;1.572;2023-04-25T07:28:06;1.83;;;0.50;;
67737;SDS011;54534;43.612;1.572;2023-04-25T07:30:31;2.10;;;0.40;;
67737;SDS011;54534;43.612;1.572;2023-04-25T07:32:56;0.70;;;0.40;;
67737;SDS011;54534;43.612;1.572;2023-04-25T07:35:22;0.33;;;0.33;;
67737;SDS011;54534;43.612;1.572;2023-04-25T07:37:47;0.30;;;0.30;;
67737;SDS011;54534;43.612;1.572;2023-04-25T07:40:13;0.90;;;0.50;;
67737;SDS011;54534;43.612;1.572;2023-04-25T07:42:40;0.60;;;0.33;;
67737;SDS011;54534;43.612;1.572;2023-04-25T07:45:06;1.50;;;0.40;;
67737;SDS011;54534;43.612;1.572;2023-04-25T07:47:32;2.83;;;0.40;;
67737;SDS011;54534;43.612;1.572;2023-04-25T07:49:57;0.97;;;0.40;;
67737;SDS011;54534;43.612;1.572;2023-04-25T07:52:23;0.53;;;0.40;;
67737;SDS011;54534;43.612;1.572;2023-04-25T07:54:48;0.93;;;0.47;;
67737;SDS011;54534;43.612;1.572;2023-04-25T07:57:14;1.60;;;0.50;;
67737;SDS011;54534;43.612;1.572;2023-04-25T07:59:39;3.40;;;0.50;;
67737;SDS011;54534;43.612;1.572;2023-04-25T08:02:05;0.57;;;0.40;;
67737;SDS011;54534;43.612;1.572;2023-04-25T08:04:30;2.83;;;0.40;;
67737;SDS011;54534;43.612;1.572;2023-04-25T08:06:56;0.77;;;0.50;;
67737;SDS011;54534;43.612;1.572;2023-04-25T08:09:21;0.40;;;0.40;;
67737;SDS011;54534;43.612;1.572;2023-04-25T08:11:47;0.40;;;0.40;;
67737;SDS011;54534;43.612;1.572;2023-04-25T08:14:13;0.40;;;0.30;;
67737;SDS011;54534;43.612;1.572;2023-04-25T08:16:38;1.17;;;0.40;;
67737;SDS011;54534;43.612;1.572;2023-04-25T08:19:04;0.83;;;0.33;;
67737;SDS011;54534;43.612;1.572;2023-04-25T08:21:30;1.03;;;0.30;;
67737;SDS011;54534;43.612;1.572;2023-04-25T08:23:56;0.53;;;0.37;;
67737;SDS011;54534;43.612;1.572;2023-04-25T08:26:23;0.30;;;0.30;;
67737;SDS011;54534;43.612;1.572;2023-04-25T08:28:49;0.80;;;0.80;;
67737;SDS011;54534;43.612;1.572;2023-04-25T08:31:14;0.37;;;0.37;;
67737;SDS011;54534;43.612;1.572;2023-04-25T08:33:40;0.43;;;0.40;;
67737;SDS011;54534;43.612;1.572;2023-04-25T08:36:05;0.30;;;0.30;;
67737;SDS011;54534;43.612;1.572;2023-04-25T08:38:31;0.43;;;0.40;;
67737;SDS011;54534;43.612;1.572;2023-04-25T08:40:56;0.33;;;0.33;;
67737;SDS011;54534;43.612;1.572;2023-04-25T08:43:24;0.83;;;0.40;;
67737;SDS011;54534;43.612;1.572;2023-04-25T08:45:50;1.20;;;0.60;;
67737;SDS011;54534;43.612;1.572;2023-04-25T08:48:19;0.30;;;0.30;;
67737;SDS011;54534;43.612;1.572;2023-04-25T08:50:45;0.30;;;0.30;;
67737;SDS011;54534;43.612;1.572;2023-04-25T08:53:27;0.40;;;0.40;;
67737;SDS011;54534;43.612;1.572;2023-04-25T08:55:53;0.30;;;0.30;;
67737;SDS011;54534;43.612;1.572;2023-04-25T08:58:20;0.40;;;0.40;;
67737;SDS011;54534;43.612;1.572;2023-04-25T09:00:46;1.70;;;0.30;;
67737;SDS011;54534;43.612;1.572;2023-04-25T09:03:12;0.40;;;0.40;;
67737;SDS011;54534;43.612;1.572;2023-04-25T09:05:39;0.50;;;0.50;;
67737;SDS011;54534;43.612;1.572;2023-04-25T09:08:05;0.33;;;0.33;;
67737;SDS011;54534;43.612;1.572;2023-04-25T09:10:31;0.40;;;0.30;;
67737;SDS011;54534;43.612;1.572;2023-04-25T09:13:07;0.97;;;0.30;;
67737;SDS011;54534;43.612;1.572;2023-04-25T09:18:27;0.30;;;0.30;;
67737;SDS011;54534;43.612;1.572;2023-04-25T09:20:54;0.43;;;0.30;;
67737;SDS011;54534;43.612;1.572;2023-04-25T09:23:21;0.63;;;0.50;;
67737;SDS011;54534;43.612;1.572;2023-04-25T09:25:49;1.23;;;0.70;;
67737;SDS011;54534;43.612;1.572;2023-04-25T09:28:15;8.03;;;0.93;;
67737;SDS011;54534;43.612;1.572;2023-04-25T09:30:41;1.27;;;0.30;;
67737;SDS011;54534;43.612;1.572;2023-04-25T09:33:08;0.43;;;0.20;;
67737;SDS011;54534;43.612;1.572;2023-04-25T09:35:37;0.20;;;0.20;;
67737;SDS011;54534;43.612;1.572;2023-04-25T09:38:10;0.30;;;0.30;;
67737;SDS011;54534;43.612;1.572;2023-04-25T09:40:43;0.40;;;0.20;;
67737;SDS011;54534;43.612;1.572;2023-04-25T09:43:23;0.20;;;0.20;;
67737;SDS011;54534;43.612;1.572;2023-04-25T09:45:50;0.40;;;0.40;;
67737;SDS011;54534;43.612;1.572;2023-04-25T09:48:18;0.27;;;0.27;;
67737;SDS011;54534;43.612;1.572;2023-04-25T09:50:45;0.60;;;0.40;;
67737;SDS011;54534;43.612;1.572;2023-04-25T09:53:34;0.30;;;0.30;;
67737;SDS011;54534;43.612;1.572;2023-04-25T09:56:06;0.30;;;0.30;;
67737;SDS011;54534;43.612;1.572;2023-04-25T09:58:33;0.47;;;0.30;;
67737;SDS011;54534;43.612;1.572;2023-04-25T10:01:00;0.37;;;0.30;;
67737;SDS011;54534;43.612;1.572;2023-04-25T10:03:29;0.27;;;0.27;;
67737;SDS011;54534;43.612;1.572;2023-04-25T10:05:57;0.15;;;0.15;;
67737;SDS011;54534;43.612;1.572;2023-04-25T10:08:25;0.20;;;0.20;;
67737;SDS011;54534;43.612;1.572;2023-04-25T10:10:58;0.40;;;0.30;;
67737;SDS011;54534;43.612;1.572;2023-04-25T10:13:31;0.30;;;0.30;;
67737;SDS011;54534;43.612;1.572;2023-04-25T10:15:58;0.30;;;0.20;;
67737;SDS011;54534;43.612;1.572;2023-04-25T10:18:27;0.57;;;0.30;;
67737;SDS011;54534;43.612;1.572;2023-04-25T10:20:54;0.35;;;0.30;;
67737;SDS011;54534;43.612;1.572;2023-04-25T10:23:21;0.67;;;0.40;;
67737;SDS011;54534;43.612;1.572;2023-04-25T10:25:48;0.30;;;0.30;;
67737;SDS011;54534;43.612;1.572;2023-04-25T10:28:17;0.20;;;0.20;;
67737;SDS011;54534;43.612;1.572;2023-04-25T10:31:02;0.37;;;0.37;;
67737;SDS011;54534;43.612;1.572;2023-04-25T10:33:30;1.80;;;0.20;;
67737;SDS011;54534;43.612;1.572;2023-04-25T10:36:10;0.20;;;0.20;;
67737;SDS011;54534;43.612;1.572;2023-04-25T10:38:40;0.30;;;0.30;;
67737;SDS011;54534;43.612;1.572;2023-04-25T10:41:08;0.30;;;0.30;;
67737;SDS011;54534;43.612;1.572;2023-04-25T10:43:35;0.30;;;0.30;;
67737;SDS011;54534;43.612;1.572;2023-04-25T10:46:26;0.33;;;0.33;;
67737;SDS011;54534;43.612;1.572;2023-04-25T10:51:19;0.20;;;0.20;;
67737;SDS011;54534;43.612;1.572;2023-04-25T10:53:56;0.20;;;0.20;;
67737;SDS011;54534;43.612;1.572;2023-04-25T10:56:27;0.20;;;0.20;;
67737;SDS011;54534;43.612;1.572;2023-04-25T10:59:07;0.30;;;0.23;;
67737;SDS011;54534;43.612;1.572;2023-04-25T11:01:39;0.30;;;0.30;;
67737;SDS011;54534;43.612;1.572;2023-04-25T11:04:05;0.33;;;0.33;;
67737;SDS011;54534;43.612;1.572;2023-04-25T11:09:24;0.37;;;0.37;;
67737;SDS011;54534;43.612;1.572;2023-04-25T11:11:57;0.30;;;0.30;;
67737;SDS011;54534;43.612;1.572;2023-04-25T11:14:23;0.20;;;0.20;;
67737;SDS011;54534;43.612;1.572;2023-04-25T11:16:52;0.20;;;0.20;;
67737;SDS011;54534;43.612;1.572;2023-04-25T11:19:22;0.27;;;0.27;;
67737;SDS011;54534;43.612;1.572;2023-04-25T11:21:48;0.30;;;0.30;;
67737;SDS011;54534;43.612;1.572;2023-04-25T11:24:13;0.37;;;0.37;;
67737;SDS011;54534;43.612;1.572;2023-04-25T11:26:41;1.80;;;0.30;;
67737;SDS011;54534;43.612;1.572;2023-04-25T11:29:07;0.30;;;0.30;;
67737;SDS011;54534;43.612;1.572;2023-04-25T11:31:33;0.20;;;0.20;;
67737;SDS011;54534;43.612;1.572;2023-04-25T11:33:58;0.30;;;0.30;;
67737;SDS011;54534;43.612;1.572;2023-04-25T11:36:25;0.57;;;0.40;;
67737;SDS011;54534;43.612;1.572;2023-04-25T11:38:51;0.27;;;0.20;;
67737;SDS011;54534;43.612;1.572;2023-04-25T11:41:18;0.33;;;0.30;;
67737;SDS011;54534;43.612;1.572;2023-04-25T11:43:44;0.37;;;0.30;;
67737;SDS011;54534;43.612;1.572;2023-04-25T11:46:09;0.20;;;0.20;;
67737;SDS011;54534;43.612;1.572;2023-04-25T11:48:38;0.30;;;0.30;;
67737;SDS011;54534;43.612;1.572;2023-04-25T11:51:04;0.20;;;0.20;;
67737;SDS011;54534;43.612;1.572;2023-04-25T11:53:29;0.30;;;0.23;;
67737;SDS011;54534;43.612;1.572;2023-04-25T11:55:55;0.37;;;0.37;;
67737;SDS011;54534;43.612;1.572;2023-04-25T11:58:21;0.30;;;0.30;;
67737;SDS011;54534;43.612;1.572;2023-04-25T12:00:46;0.20;;;0.20;;
67737;SDS011;54534;43.612;1.572;2023-04-25T12:03:12;0.40;;;0.40;;
67737;SDS011;54534;43.612;1.572;2023-04-25T12:05:37;0.20;;;0.20;;
67737;SDS011;54534;43.612;1.572;2023-04-25T12:08:13;0.30;;;0.30;;
67737;SDS011;54534;43.612;1.572;2023-04-25T12:10:40;0.33;;;0.30;;
67737;SDS011;54534;43.612;1.572;2023-04-25T12:13:24;0.30;;;0.30;;
67737;SDS011;54534;43.612;1.572;2023-04-25T12:15:50;0.30;;;0.30;;
67737;SDS011;54534;43.612;1.572;2023-04-25T12:18:35;0.27;;;0.27;;
67737;SDS011;54534;43.612;1.572;2023-04-25T12:21:01;0.63;;;0.60;;
67737;SDS011;54534;43.612;1.572;2023-04-25T12:23:26;0.20;;;0.20;;
67737;SDS011;54534;43.612;1.572;2023-04-25T12:25:53;0.67;;;0.40;;
67737;SDS011;54534;43.612;1.572;2023-04-25T12:28:22;0.20;;;0.20;;
67737;SDS011;54534;43.612;1.572;2023-04-25T12:33:33;0.30;;;0.20;;
67737;SDS011;54534;43.612;1.572;2023-04-25T12:35:59;0.20;;;0.20;;
67737;SDS011;54534;43.612;1.572;2023-04-25T12:38:29;0.35;;;0.30;;
67737;SDS011;54534;43.612;1.572;2023-04-25T12:40:56;0.20;;;0.20;;
67737;SDS011;54534;43.612;1.572;2023-04-25T12:43:22;0.20;;;0.20;;
67737;SDS011;54534;43.612;1.572;2023-04-25T12:45:48;0.20;;;0.20;;
67737;SDS011;54534;43.612;1.572;2023-04-25T12:48:16;0.20;;;0.20;;
67737;SDS011;54534;43.612;1.572;2023-04-25T12:50:41;0.30;;;0.30;;
67737;SDS011;54534;43.612;1.572;2023-04-25T12:53:07;0.20;;;0.20;;
67737;SDS011;54534;43.612;1.572;2023-04-25T12:55:32;0.20;;;0.20;;
67737;SDS011;54534;43.612;1.572;2023-04-25T12:57:58;0.20;;;0.20;;
67737;SDS011;54534;43.612;1.572;2023-04-25T13:00:23;0.30;;;0.30;;
67737;SDS011;54534;43.612;1.572;2023-04-25T13:02:49;0.47;;;0.20;;
67737;SDS011;54534;43.612;1.572;2023-04-25T13:05:15;0.20;;;0.20;;
67737;SDS011;54534;43.612;1.572;2023-04-25T13:07:40;0.30;;;0.30;;
67737;SDS011;54534;43.612;1.572;2023-04-25T13:10:06;0.20;;;0.20;;
67737;SDS011;54534;43.612;1.572;2023-04-25T13:12:32;0.20;;;0.20;;
67737;SDS011;54534;43.612;1.572;2023-04-25T13:14:57;0.30;;;0.30;;
67737;SDS011;54534;43.612;1.572;2023-04-25T13:17:23;0.20;;;0.20;;
67737;SDS011;54534;43.612;1.572;2023-04-25T13:19:48;0.20;;;0.20;;
67737;SDS011;54534;43.612;1.572;2023-04-25T13:22:14;1.70;;;0.30;;
67737;SDS011;54534;43.612;1.572;2023-04-25T13:24:41;0.30;;;0.30;;
67737;SDS011;54534;43.612;1.572;2023-04-25T13:27:07;0.20;;;0.20;;
67737;SDS011;54534;43.612;1.572;2023-04-25T13:29:33;0.50;;;0.50;;
67737;SDS011;54534;43.612;1.572;2023-04-25T13:32:00;0.20;;;0.20;;
67737;SDS011;54534;43.612;1.572;2023-04-25T13:34:26;0.30;;;0.30;;
67737;SDS011;54534;43.612;1.572;2023-04-25T13:36:52;0.23;;;0.20;;
67737;SDS011;54534;43.612;1.572;2023-04-25T13:39:17;0.93;;;0.30;;
67737;SDS011;54534;43.612;1.572;2023-04-25T13:41:42;0.20;;;0.20;;
67737;SDS011;54534;43.612;1.572;2023-04-25T13:44:08;0.40;;;0.40;;
67737;SDS011;54534;43.612;1.572;2023-04-25T13:46:33;0.30;;;0.30;;
67737;SDS011;54534;43.612;1.572;2023-04-25T13:48:59;0.27;;;0.27;;
67737;SDS011;54534;43.612;1.572;2023-04-25T13:51:24;0.30;;;0.30;;
67737;SDS011;54534;43.612;1.572;2023-04-25T13:53:50;0.77;;;0.30;;
67737;SDS011;54534;43.612;1.572;2023-04-25T13:56:16;0.30;;;0.30;;
67737;SDS011;54534;43.612;1.572;2023-04-25T13:58:41;0.20;;;0.20;;
67737;SDS011;54534;43.612;1.572;2023-04-25T14:01:07;0.30;;;0.30;;
67737;SDS011;54534;43.612;1.572;2023-04-25T14:03:32;0.30;;;0.30;;
67737;SDS011;54534;43.612;1.572;2023-04-25T14:05:57;0.73;;;0.30;;
67737;SDS011;54534;43.612;1.572;2023-04-25T14:08:23;0.30;;;0.30;;
67737;SDS011;54534;43.612;1.572;2023-04-25T14:10:48;0.20;;;0.20;;
67737;SDS011;54534;43.612;1.572;2023-04-25T14:13:14;0.27;;;0.27;;
67737;SDS011;54534;43.612;1.572;2023-04-25T14:15:40;0.50;;;0.30;;
67737;SDS011;54534;43.612;1.572;2023-04-25T14:18:05;0.33;;;0.20;;
67737;SDS011;54534;43.612;1.572;2023-04-25T14:20:30;0.40;;;0.40;;
67737;SDS011;54534;43.612;1.572;2023-04-25T14:22:56;0.30;;;0.30;;
67737;SDS011;54534;43.612;1.572;2023-04-25T14:25:23;0.20;;;0.20;;
67737;SDS011;54534;43.612;1.572;2023-04-25T14:27:49;0.63;;;0.63;;
67737;SDS011;54534;43.612;1.572;2023-04-25T14:30:18;0.30;;;0.30;;
67737;SDS011;54534;43.612;1.572;2023-04-25T14:35:10;0.40;;;0.40;;
67737;SDS011;54534;43.612;1.572;2023-04-25T14:37:36;0.30;;;0.30;;
67737;SDS011;54534;43.612;1.572;2023-04-25T14:40:01;0.37;;;0.37;;
67737;SDS011;54534;43.612;1.572;2023-04-25T14:42:27;0.30;;;0.30;;
67737;SDS011;54534;43.612;1.572;2023-04-25T14:44:52;0.53;;;0.40;;
67737;SDS011;54534;43.612;1.572;2023-04-25T14:47:18;1.30;;;0.20;;
67737;SDS011;54534;43.612;1.572;2023-04-25T14:49:43;0.30;;;0.30;;
67737;SDS011;54534;43.612;1.572;2023-04-25T14:52:09;0.20;;;0.20;;
67737;SDS011;54534;43.612;1.572;2023-04-25T14:54:34;0.30;;;0.30;;
67737;SDS011;54534;43.612;1.572;2023-04-25T14:57:00;0.40;;;0.40;;